createdAt,value
2023-01-27T00:01:08.772Z,7.20
2023-01-27T00:03:35.615Z,7.57
2023-01-27T00:06:04.567Z,7.77
2023-01-27T00:08:31.359Z,8.83
2023-01-27T00:11:32.187Z,11.43
2023-01-27T00:13:58.939Z,7.67
2023-01-27T00:16:25.711Z,8.30
2023-01-27T00:18:52.534Z,8.33
2023-01-27T00:21:37.890Z,7.60
2023-01-27T00:24:23.794Z,7.53
2023-01-27T00:26:50.493Z,8.07
2023-01-27T00:29:17.264Z,10.07
2023-01-27T00:32:02.563Z,7.37
2023-01-27T00:34:29.311Z,10.53
2023-01-27T00:36:56.087Z,10.33
2023-01-27T00:39:22.787Z,11.13
2023-01-27T00:41:49.581Z,9.50
2023-01-27T00:44:16.905Z,8.73
2023-01-27T00:46:43.777Z,7.67
2023-01-27T00:49:13.152Z,9.23
2023-01-27T00:51:39.991Z,7.57
2023-01-27T00:54:06.745Z,8.60
2023-01-27T00:56:33.625Z,8.13
2023-01-27T00:59:00.924Z,8.93
2023-01-27T01:01:28.626Z,7.97
2023-01-27T01:03:55.404Z,9.97
2023-01-27T01:06:22.273Z,8.23
2023-01-27T01:08:49.023Z,8.17
2023-01-27T01:11:17.480Z,8.53
2023-01-27T01:13:46.400Z,8.60
2023-01-27T01:16:21.358Z,14.50
2023-01-27T01:18:48.497Z,8.47
2023-01-27T01:21:16.045Z,8.53
2023-01-27T01:23:45.731Z,9.73
2023-01-27T01:26:15.855Z,10.17
2023-01-27T01:28:45.184Z,10.50
2023-01-27T01:31:15.910Z,11.20
2023-01-27T01:33:42.744Z,10.87
2023-01-27T01:36:13.292Z,9.80
2023-01-27T01:38:40.718Z,7.57
2023-01-27T01:41:12.572Z,9.03
2023-01-27T01:43:39.447Z,10.13
2023-01-27T01:46:10.236Z,8.23
2023-01-27T01:48:50.499Z,9.23
2023-01-27T01:51:34.865Z,10.67
2023-01-27T01:54:07.568Z,10.40
2023-01-27T01:56:40.377Z,10.70
2023-01-27T01:59:16.385Z,11.60
2023-01-27T02:01:43.214Z,11.80
2023-01-27T02:04:17.877Z,9.93
2023-01-27T02:07:21.257Z,11.40
2023-01-27T02:09:48.166Z,9.97
2023-01-27T02:12:14.920Z,10.67
2023-01-27T02:14:42.210Z,14.60
2023-01-27T02:17:13.085Z,12.43
2023-01-27T02:20:19.183Z,14.40
2023-01-27T02:23:32.501Z,13.13
2023-01-27T02:26:31.309Z,11.50
2023-01-27T02:29:05.070Z,14.23
2023-01-27T02:31:32.813Z,13.00
2023-01-27T02:34:11.309Z,12.63
2023-01-27T02:36:51.255Z,15.10
2023-01-27T02:39:22.567Z,14.17
2023-01-27T02:41:56.645Z,14.97
2023-01-27T02:44:23.797Z,21.10
2023-01-27T02:46:50.557Z,16.07
2023-01-27T02:49:17.414Z,15.23
2023-01-27T02:51:44.292Z,16.10
2023-01-27T02:54:11.046Z,13.33
2023-01-27T02:56:37.857Z,13.07
2023-01-27T02:59:04.571Z,14.53
2023-01-27T03:01:34.357Z,19.93
2023-01-27T03:04:02.069Z,17.10
2023-01-27T03:06:29.001Z,17.23
2023-01-27T03:08:55.753Z,16.33
2023-01-27T03:11:41.050Z,16.97
2023-01-27T03:14:09.267Z,16.47
2023-01-27T03:16:54.523Z,17.33
2023-01-27T03:19:21.579Z,20.27
2023-01-27T03:21:52.679Z,19.63
2023-01-27T03:24:20.342Z,19.20
2023-01-27T03:26:47.237Z,19.30
2023-01-27T03:29:32.830Z,18.50
2023-01-27T03:31:59.700Z,16.87
2023-01-27T03:34:26.433Z,16.73
2023-01-27T03:37:11.804Z,19.90
2023-01-27T03:39:57.105Z,17.90
2023-01-27T03:42:42.361Z,20.03
2023-01-27T03:45:28.557Z,19.70
2023-01-27T03:47:55.279Z,16.63
2023-01-27T03:50:31.080Z,18.93
2023-01-27T03:53:03.717Z,15.57
2023-01-27T03:55:36.462Z,18.10
2023-01-27T03:58:20.018Z,18.23
2023-01-27T04:00:51.839Z,18.00
2023-01-27T04:03:38.160Z,18.47
2023-01-27T04:06:27.415Z,15.57
2023-01-27T04:08:54.257Z,17.13
2023-01-27T04:11:44.194Z,19.03
2023-01-27T04:14:12.686Z,15.73
2023-01-27T04:16:39.501Z,20.10
2023-01-27T04:19:09.603Z,20.07
2023-01-27T04:21:36.677Z,19.23
2023-01-27T04:24:08.479Z,12.97
2023-01-27T04:26:35.463Z,19.70
2023-01-27T04:29:03.269Z,15.13
2023-01-27T04:31:32.439Z,15.93
2023-01-27T04:33:59.337Z,11.30
2023-01-27T04:36:28.193Z,13.33
2023-01-27T04:38:54.916Z,11.00
2023-01-27T04:41:21.659Z,12.40
2023-01-27T04:43:48.535Z,13.07
2023-01-27T04:46:15.303Z,10.13
2023-01-27T04:48:42.082Z,11.67
2023-01-27T04:51:08.915Z,11.27
2023-01-27T04:53:35.664Z,11.63
2023-01-27T04:56:14.923Z,11.80
2023-01-27T04:58:41.642Z,13.47
2023-01-27T05:01:08.398Z,13.70
2023-01-27T05:03:35.165Z,12.63
2023-01-27T05:06:01.859Z,13.57
2023-01-27T05:08:28.586Z,9.13
2023-01-27T05:10:55.526Z,11.37
2023-01-27T05:13:22.416Z,15.67
2023-01-27T05:15:49.248Z,11.63
2023-01-27T05:18:16.126Z,12.30
2023-01-27T05:20:42.882Z,14.27
2023-01-27T05:23:27.929Z,11.23
2023-01-27T05:25:54.705Z,10.40
2023-01-27T05:28:21.504Z,11.60
2023-01-27T05:30:48.369Z,12.90
2023-01-27T05:33:15.100Z,13.60
2023-01-27T05:35:41.817Z,11.00
2023-01-27T05:38:08.514Z,11.30
2023-01-27T05:40:35.639Z,10.63
2023-01-27T05:43:02.370Z,12.23
2023-01-27T05:45:29.079Z,14.80
2023-01-27T05:47:55.863Z,10.57
2023-01-27T05:50:22.569Z,13.03
2023-01-27T05:52:49.290Z,13.40
2023-01-27T05:55:16.268Z,10.23
2023-01-27T05:57:42.993Z,12.07
2023-01-27T06:00:10.791Z,11.50
2023-01-27T06:02:37.513Z,10.47
2023-01-27T06:05:04.540Z,11.40
2023-01-27T06:07:31.249Z,13.53
2023-01-27T06:09:57.979Z,11.17
2023-01-27T06:12:24.698Z,10.20
2023-01-27T06:14:51.404Z,10.33
2023-01-27T06:17:18.110Z,11.53
2023-01-27T06:19:44.820Z,11.43
2023-01-27T06:22:11.552Z,12.40
2023-01-27T06:24:38.293Z,9.67
2023-01-27T06:27:05.014Z,12.07
2023-01-27T06:29:32.002Z,12.70
2023-01-27T06:31:58.778Z,14.33
2023-01-27T06:34:25.534Z,10.00
2023-01-27T06:36:55.390Z,11.70
2023-01-27T06:39:22.190Z,11.53
2023-01-27T06:41:50.332Z,11.70
2023-01-27T06:44:17.226Z,11.70
2023-01-27T06:46:44.045Z,12.87
2023-01-27T06:49:10.884Z,12.57
2023-01-27T06:51:37.599Z,12.50
2023-01-27T06:54:05.318Z,13.10
2023-01-27T06:56:32.081Z,15.70
2023-01-27T06:58:58.821Z,12.10
2023-01-27T07:01:25.519Z,12.57
2023-01-27T07:03:52.339Z,11.03
2023-01-27T07:06:20.123Z,14.63
2023-01-27T07:08:47.397Z,12.90
2023-01-27T07:11:14.382Z,16.03
2023-01-27T07:13:41.070Z,14.03
2023-01-27T07:16:08.004Z,14.77
2023-01-27T07:18:34.968Z,13.33
2023-01-27T07:21:05.433Z,11.60
2023-01-27T07:23:32.213Z,12.13
2023-01-27T07:26:04.267Z,14.47
2023-01-27T07:28:32.533Z,14.23
2023-01-27T07:31:03.462Z,11.70
2023-01-27T07:33:30.235Z,10.50
2023-01-27T07:35:57.033Z,14.80
2023-01-27T07:38:23.782Z,16.67
2023-01-27T07:40:50.585Z,13.30
2023-01-27T07:43:17.309Z,10.27
2023-01-27T07:45:44.264Z,14.73
2023-01-27T07:48:12.408Z,16.80
2023-01-27T07:50:44.054Z,16.13
2023-01-27T07:53:11.716Z,15.10
2023-01-27T07:55:38.484Z,13.07
2023-01-27T07:58:06.053Z,13.97
2023-01-27T08:00:33.701Z,16.73
2023-01-27T08:03:02.261Z,15.57
2023-01-27T08:05:33.059Z,17.87
2023-01-27T08:08:03.675Z,15.37
2023-01-27T08:10:31.264Z,14.30
2023-01-27T08:12:58.008Z,15.80
2023-01-27T08:15:24.858Z,17.57
2023-01-27T08:17:59.052Z,18.77
2023-01-27T08:20:27.663Z,17.87
2023-01-27T08:22:54.601Z,20.13
2023-01-27T08:25:22.112Z,16.03
2023-01-27T08:27:54.512Z,15.70
2023-01-27T08:30:21.817Z,13.83
2023-01-27T08:32:48.985Z,16.30
2023-01-27T08:35:16.141Z,16.40
2023-01-27T08:37:42.898Z,17.33
2023-01-27T08:40:11.002Z,18.57
2023-01-27T08:42:38.074Z,18.97
2023-01-27T08:45:05.438Z,15.47
2023-01-27T08:47:32.153Z,16.10
2023-01-27T08:49:59.156Z,14.90
2023-01-27T08:52:27.535Z,15.30
2023-01-27T08:54:54.360Z,13.53
2023-01-27T08:57:21.086Z,17.10
2023-01-27T08:59:47.798Z,13.53
2023-01-27T09:02:14.580Z,16.20
2023-01-27T09:04:44.157Z,17.27
2023-01-27T09:07:11.622Z,16.30
2023-01-27T09:09:38.330Z,15.97
2023-01-27T09:12:05.345Z,13.17
2023-01-27T09:14:32.081Z,11.93
2023-01-27T09:16:58.771Z,15.07
2023-01-27T09:19:25.668Z,13.90
2023-01-27T09:21:52.441Z,14.33
2023-01-27T09:24:20.442Z,11.83
2023-01-27T09:26:47.418Z,9.37
2023-01-27T09:29:14.250Z,13.67
2023-01-27T09:31:41.107Z,12.40
2023-01-27T09:34:07.934Z,12.57
2023-01-27T09:36:43.642Z,13.93
2023-01-27T09:39:11.969Z,19.90
2023-01-27T09:42:08.736Z,13.23
2023-01-27T09:44:59.465Z,13.53
2023-01-27T09:48:02.884Z,12.83
2023-01-27T09:50:43.741Z,12.17
2023-01-27T09:53:37.131Z,10.77
2023-01-27T09:56:27.164Z,9.87
2023-01-27T09:59:23.864Z,12.03
2023-01-27T10:02:13.103Z,10.73
2023-01-27T10:05:27.646Z,12.87
2023-01-27T10:08:21.926Z,10.07
2023-01-27T10:11:09.859Z,11.27
2023-01-27T10:13:50.863Z,11.67
2023-01-27T10:16:51.969Z,8.03
2023-01-27T10:20:12.348Z,9.50
2023-01-27T10:22:49.584Z,9.20
2023-01-27T10:26:01.675Z,11.03
2023-01-27T10:28:31.783Z,14.03
2023-01-27T10:31:01.311Z,10.27
2023-01-27T10:33:53.666Z,8.37
2023-01-27T10:37:12.304Z,10.13
2023-01-27T10:39:49.151Z,12.13
2023-01-27T10:42:30.854Z,12.57
2023-01-27T10:45:24.214Z,8.97
2023-01-27T10:48:51.935Z,9.73
2023-01-27T10:51:39.290Z,12.13
2023-01-27T10:54:11.543Z,13.93
2023-01-27T10:56:55.994Z,10.07
2023-01-27T11:00:17.392Z,10.00
2023-01-27T11:03:02.487Z,8.20
2023-01-27T11:05:37.497Z,10.57
2023-01-27T11:08:13.206Z,8.03
2023-01-27T11:11:06.473Z,11.47
2023-01-27T11:13:34.273Z,8.83
2023-01-27T11:16:04.213Z,11.57
2023-01-27T11:18:36.134Z,9.50
2023-01-27T11:21:09.335Z,11.30
2023-01-27T11:23:45.847Z,9.77
2023-01-27T11:26:23.642Z,13.23
2023-01-27T11:29:29.311Z,9.63
2023-01-27T11:32:33.666Z,9.23
2023-01-27T11:35:09.617Z,8.53
2023-01-27T11:37:40.869Z,10.73
2023-01-27T11:40:33.014Z,8.23
2023-01-27T11:43:01.739Z,10.03
2023-01-27T11:45:35.403Z,8.20
2023-01-27T11:48:07.103Z,9.77
2023-01-27T11:50:36.109Z,8.97
2023-01-27T11:53:30.217Z,8.13
2023-01-27T11:56:10.352Z,7.80
2023-01-27T11:58:47.968Z,8.83
2023-01-27T12:01:23.851Z,8.73
2023-01-27T12:04:14.174Z,9.30
2023-01-27T12:07:01.600Z,7.20
2023-01-27T12:09:40.074Z,9.77
2023-01-27T12:12:13.906Z,10.63
2023-01-27T12:14:59.592Z,7.87
2023-01-27T12:17:40.104Z,8.27
2023-01-27T12:20:21.563Z,9.23
2023-01-27T12:22:55.499Z,7.63
2023-01-27T12:25:31.054Z,6.83
2023-01-27T12:28:04.516Z,7.43
2023-01-27T12:30:38.175Z,10.93
2023-01-27T12:33:19.626Z,9.57
2023-01-27T12:35:50.008Z,7.40
2023-01-27T12:38:23.580Z,7.33
2023-01-27T12:41:03.204Z,8.67
2023-01-27T12:43:30.016Z,6.10
2023-01-27T12:46:12.133Z,7.00
2023-01-27T12:48:51.268Z,5.67
2023-01-27T12:51:34.986Z,6.43
2023-01-27T12:54:21.929Z,6.53
2023-01-27T12:57:04.643Z,6.07
2023-01-27T12:59:33.438Z,5.87
2023-01-27T13:02:23.062Z,6.60
2023-01-27T13:04:56.884Z,5.97
2023-01-27T13:07:48.884Z,6.80
2023-01-27T13:10:27.649Z,6.17
2023-01-27T13:12:58.734Z,6.40
2023-01-27T13:15:31.381Z,7.03
2023-01-27T13:18:19.042Z,6.47
2023-01-27T13:20:52.364Z,5.77
2023-01-27T13:23:32.432Z,6.67
2023-01-27T13:26:09.408Z,7.37
2023-01-27T13:28:55.942Z,6.43
2023-01-27T13:32:16.847Z,7.57
2023-01-27T13:35:01.771Z,6.67
2023-01-27T13:37:51.264Z,6.47
2023-01-27T13:40:26.438Z,6.03
2023-01-27T13:43:10.270Z,5.47
2023-01-27T13:45:44.220Z,6.63
2023-01-27T13:48:40.436Z,5.80
2023-01-27T13:51:15.767Z,5.47
2023-01-27T13:53:47.023Z,5.97
2023-01-27T13:56:19.569Z,6.70
2023-01-27T13:59:35.544Z,5.77
2023-01-27T14:02:49.697Z,5.43
2023-01-27T14:06:02.497Z,5.63
2023-01-27T14:08:45.231Z,7.57
2023-01-27T14:11:41.987Z,7.47
2023-01-27T14:14:58.091Z,6.53
2023-01-27T14:17:43.420Z,5.60
2023-01-27T14:20:37.051Z,6.03
2023-01-27T14:23:34.802Z,5.50
2023-01-27T14:26:39.488Z,5.87
2023-01-27T14:29:37.786Z,8.73
2023-01-27T14:32:35.055Z,6.53
2023-01-27T14:35:47.859Z,5.87
2023-01-27T14:38:39.106Z,6.27
2023-01-27T14:41:43.019Z,5.53
2023-01-27T14:44:29.959Z,6.93
2023-01-27T14:47:41.014Z,6.90
2023-01-27T14:50:43.506Z,6.30
2023-01-27T14:53:34.594Z,6.70
2023-01-27T14:56:45.016Z,7.00
2023-01-27T14:59:56.305Z,5.53
2023-01-27T15:02:38.480Z,6.43
2023-01-27T15:05:21.055Z,6.00
2023-01-27T15:08:00.990Z,7.63
2023-01-27T15:10:31.215Z,6.43
2023-01-27T15:13:15.499Z,6.50
2023-01-27T15:16:06.566Z,6.23
2023-01-27T15:18:51.943Z,6.20
2023-01-27T15:21:48.315Z,6.40
2023-01-27T15:24:27.139Z,6.13
2023-01-27T15:26:55.023Z,5.93
2023-01-27T15:29:28.434Z,5.70
2023-01-27T15:32:27.881Z,5.53
2023-01-27T15:35:34.267Z,5.97
2023-01-27T15:38:19.718Z,5.83
2023-01-27T15:41:11.855Z,5.53
2023-01-27T15:44:01.576Z,6.37
2023-01-27T15:46:38.741Z,6.43
2023-01-27T15:49:26.717Z,5.97
2023-01-27T15:52:10.710Z,5.57
2023-01-27T15:54:41.905Z,5.97
2023-01-27T15:57:28.194Z,6.73
2023-01-27T16:00:04.497Z,6.43
2023-01-27T16:02:37.685Z,6.30
2023-01-27T16:05:41.553Z,6.23
2023-01-27T16:08:15.753Z,6.13
2023-01-27T16:10:43.687Z,5.30
2023-01-27T16:13:24.014Z,5.50
2023-01-27T16:16:19.422Z,6.03
2023-01-27T16:19:11.130Z,6.50
2023-01-27T16:21:49.720Z,6.33
2023-01-27T16:24:56.022Z,6.70
2023-01-27T16:27:38.395Z,7.40
2023-01-27T16:30:27.395Z,6.33
2023-01-27T16:33:26.249Z,6.40
2023-01-27T16:36:03.680Z,6.33
2023-01-27T16:38:35.872Z,6.40
2023-01-27T16:41:16.548Z,6.40
2023-01-27T16:43:49.880Z,5.77
2023-01-27T16:46:58.334Z,6.67
2023-01-27T16:49:36.605Z,6.70
2023-01-27T16:52:05.806Z,6.37
2023-01-27T16:54:42.654Z,6.27
2023-01-27T16:57:36.167Z,7.10
2023-01-27T17:00:28.416Z,6.80
2023-01-27T17:03:00.565Z,6.90
2023-01-27T17:05:28.097Z,7.00
2023-01-27T17:08:27.385Z,6.83
2023-01-27T17:11:17.818Z,6.83
2023-01-27T17:13:49.990Z,9.20
2023-01-27T17:16:29.629Z,8.67
2023-01-27T17:19:09.626Z,7.63
2023-01-27T17:21:44.046Z,6.87
2023-01-27T17:24:24.513Z,8.90
2023-01-27T17:27:03.806Z,8.37
2023-01-27T17:29:39.711Z,10.93
2023-01-27T17:32:25.967Z,11.93
2023-01-27T17:34:56.511Z,11.63
2023-01-27T17:37:24.762Z,11.33
2023-01-27T17:39:57.801Z,10.30
2023-01-27T17:42:29.692Z,11.77
2023-01-27T17:45:34.075Z,12.73
2023-01-27T17:48:01.860Z,13.23
2023-01-27T17:50:38.011Z,13.00
2023-01-27T17:53:11.315Z,11.63
2023-01-27T17:55:39.052Z,10.30
2023-01-27T17:58:16.837Z,10.23
2023-01-27T18:00:45.613Z,10.77
2023-01-27T18:03:34.891Z,12.83
2023-01-27T18:06:05.451Z,11.40
2023-01-27T18:08:36.621Z,9.87
2023-01-27T18:11:19.843Z,11.97
2023-01-27T18:13:53.711Z,11.17
2023-01-27T18:16:23.792Z,13.10
2023-01-27T18:18:51.048Z,10.13
2023-01-27T18:21:24.118Z,11.83
2023-01-27T18:23:57.249Z,12.87
2023-01-27T18:26:42.313Z,10.50
2023-01-27T18:29:38.806Z,9.30
2023-01-27T18:32:18.254Z,11.07
2023-01-27T18:34:50.031Z,8.63
2023-01-27T18:37:31.002Z,8.60
2023-01-27T18:40:00.647Z,10.47
2023-01-27T18:42:31.553Z,13.30
2023-01-27T18:44:58.391Z,9.03
2023-01-27T18:47:31.647Z,7.90
2023-01-27T18:50:22.789Z,10.87
2023-01-27T18:52:51.440Z,10.60
2023-01-27T18:55:30.097Z,9.77
2023-01-27T18:57:59.953Z,8.67
2023-01-27T19:00:37.299Z,12.27
2023-01-27T19:03:11.927Z,11.70
2023-01-27T19:05:38.760Z,10.50
2023-01-27T19:08:06.078Z,11.60
2023-01-27T19:10:35.040Z,12.00
2023-01-27T19:13:03.567Z,12.27
2023-01-27T19:15:37.986Z,12.00
2023-01-27T19:18:19.828Z,13.10
2023-01-27T19:20:46.769Z,8.30
2023-01-27T19:23:17.028Z,9.87
2023-01-27T19:25:50.039Z,10.60
2023-01-27T19:28:47.714Z,10.30
2023-01-27T19:31:15.255Z,9.67
2023-01-27T19:33:44.738Z,8.80
2023-01-27T19:36:20.778Z,7.37
2023-01-27T19:38:49.091Z,12.77
2023-01-27T19:41:15.900Z,7.17
2023-01-27T19:43:42.663Z,8.23
2023-01-27T19:46:20.545Z,6.97
2023-01-27T19:48:49.119Z,7.43
2023-01-27T19:51:17.877Z,8.70
2023-01-27T19:53:45.939Z,9.83
2023-01-27T19:56:19.386Z,9.50
2023-01-27T19:58:52.605Z,8.23
2023-01-27T20:01:21.971Z,8.33
2023-01-27T20:03:49.574Z,8.37
2023-01-27T20:06:18.518Z,9.00
2023-01-27T20:08:45.297Z,8.87
2023-01-27T20:11:36.726Z,6.97
2023-01-27T20:14:12.017Z,6.87
2023-01-27T20:16:41.924Z,8.30
2023-01-27T20:19:08.999Z,7.30
2023-01-27T20:21:36.249Z,7.77
2023-01-27T20:24:03.348Z,7.10
2023-01-27T20:26:31.135Z,5.63
2023-01-27T20:28:57.976Z,6.63
2023-01-27T20:31:24.834Z,6.43
2023-01-27T20:33:52.102Z,5.67
2023-01-27T20:36:22.851Z,5.73
2023-01-27T20:38:51.546Z,6.23
2023-01-27T20:41:23.494Z,6.30
2023-01-27T20:44:00.385Z,6.07
2023-01-27T20:46:28.615Z,6.40
2023-01-27T20:48:56.160Z,6.20
2023-01-27T20:51:22.902Z,6.63
2023-01-27T20:53:49.610Z,6.80
2023-01-27T20:56:19.888Z,7.87
2023-01-27T20:58:48.241Z,7.03
2023-01-27T21:01:22.915Z,8.80
2023-01-27T21:03:50.852Z,7.57
2023-01-27T21:06:19.843Z,9.07
2023-01-27T21:08:47.870Z,6.40
2023-01-27T21:11:16.090Z,8.20
2023-01-27T21:13:42.995Z,6.60
2023-01-27T21:16:10.225Z,5.93
2023-01-27T21:18:37.273Z,6.40
2023-01-27T21:21:04.926Z,5.70
2023-01-27T21:23:34.019Z,5.17
2023-01-27T21:26:11.511Z,4.97
2023-01-27T21:28:38.227Z,5.73
2023-01-27T21:31:08.109Z,5.30
2023-01-27T21:33:37.285Z,5.13
2023-01-27T21:36:08.068Z,5.70
2023-01-27T21:38:36.123Z,5.53
2023-01-27T21:41:36.116Z,4.90
2023-01-27T21:44:23.563Z,5.27
2023-01-27T21:46:50.354Z,5.37
2023-01-27T21:49:17.229Z,6.30
2023-01-27T21:51:43.950Z,5.50
2023-01-27T21:54:10.675Z,5.23
2023-01-27T21:56:37.559Z,4.83
2023-01-27T21:59:04.594Z,4.90
2023-01-27T22:01:31.817Z,4.70
2023-01-27T22:03:58.798Z,4.27
2023-01-27T22:06:26.195Z,5.00
2023-01-27T22:08:52.915Z,5.47
2023-01-27T22:11:20.375Z,5.37
2023-01-27T22:13:47.536Z,5.03
2023-01-27T22:16:16.455Z,4.70
2023-01-27T22:18:43.413Z,6.43
2023-01-27T22:21:10.332Z,4.80
2023-01-27T22:23:37.133Z,5.07
2023-01-27T22:26:07.688Z,4.80
2023-01-27T22:28:34.475Z,4.87
2023-01-27T22:31:02.266Z,4.47
2023-01-27T22:33:29.074Z,4.97
2023-01-27T22:36:05.046Z,4.90
2023-01-27T22:38:31.813Z,5.07
2023-01-27T22:40:59.361Z,4.40
2023-01-27T22:43:26.271Z,4.60
2023-01-27T22:45:53.134Z,4.30
2023-01-27T22:48:19.991Z,4.40
2023-01-27T22:50:46.769Z,4.33
2023-01-27T22:53:13.496Z,4.40
2023-01-27T22:55:40.195Z,4.23
2023-01-27T22:58:07.974Z,4.30
2023-01-27T23:00:34.781Z,4.77
2023-01-27T23:03:01.848Z,4.50
2023-01-27T23:05:28.568Z,4.40
2023-01-27T23:07:55.290Z,4.63
2023-01-27T23:10:21.999Z,4.73
2023-01-27T23:12:48.696Z,4.60
2023-01-27T23:15:15.791Z,5.03
2023-01-27T23:17:42.648Z,4.50
2023-01-27T23:20:10.555Z,4.53
2023-01-27T23:22:37.333Z,4.50
2023-01-27T23:25:04.598Z,4.77
2023-01-27T23:27:32.365Z,4.37
2023-01-27T23:29:59.088Z,4.60
2023-01-27T23:32:25.807Z,4.40
2023-01-27T23:34:52.547Z,4.20
2023-01-27T23:37:19.242Z,4.13
2023-01-27T23:39:48.593Z,4.53
2023-01-27T23:42:17.192Z,4.60
2023-01-27T23:44:44.074Z,3.90
2023-01-27T23:47:12.881Z,4.90
2023-01-27T23:49:39.788Z,3.63
2023-01-27T23:52:06.886Z,4.30
2023-01-27T23:54:33.695Z,4.57
2023-01-27T23:57:00.701Z,3.80
2023-01-27T23:59:27.420Z,4.37
